Nearby METAR Reports

 

KALB - Albany, New York, USA
Distance from station: E 47mi, 75km
Updated: Tue, 16-Apr-2024 2:51am EDT
Clear
Clear
 Wind from calm
Wind: Calm
Temperature: 43°F, 6°C
Dew Point: 28°F, -2°C
Humidity: 57%
Barometer: 30.03 inHg, 1016.9 hPa
Clouds: Clear
Visibility: 10 miles, 16 km
2024/04/16 06:51 KALB 160651Z 00000KT 10SM CLR 06/M02 A3003 RMK AO2 SLP168 T00561017
KSLK - Saranac Lake, New York, USA
Distance from station: N 110mi, 177km
Updated: Tue, 16-Apr-2024 2:51am EDT
Mostly cloudy
Mostly cloudy
 Wind from calm
Wind: Calm
Temperature: 30°F, -1°C
Dew Point: 30°F, -1°C
Humidity: 100%
Barometer: 29.98 inHg, 1015.2 hPa
Clouds: Mostly cloudy
Visibility: 7 miles, 11 km
Cloud details: Mostly cloudy 6000 ft
2024/04/16 06:51 KSLK 160651Z AUTO 00000KT 7SM BKN060 M01/M01 A2998 RMK AO2 SLP165 I1000 T10061011
 
KSYR - Syracuse, New York, USA
Distance from station: W 73mi, 117km
Updated: Tue, 16-Apr-2024 2:54am EDT
Clear
Clear
 Wind from W
Wind: W 7 mph, 11 km/h
Temperature: 43°F, 6°C
Wind Chill: 39°F, 4°C
Dew Point: 34°F, 1°C
Humidity: 71%
Barometer: 30.07 inHg, 1018.3 hPa
Clouds: Clear
Visibility: 10 miles, 16 km
2024/04/16 06:54 KSYR 160654Z 28006KT 10SM CLR 06/01 A3007 RMK AO2 SLP180 T00560011 $
KBGM - Binghamton, New York, USA
Distance from station: SW 78mi, 126km
Updated: Tue, 16-Apr-2024 2:53am EDT
Clear
Clear
 Wind from NW
Wind: NW 5 mph, 7 km/h
Temperature: 45°F, 7°C
Wind Chill: 42°F, 6°C
Dew Point: 30°F, -1°C
Humidity: 57%
Barometer: 30.05 inHg, 1017.6 hPa
Clouds: Clear
Visibility: 10 miles, 16 km
2024/04/16 06:53 KBGM 160653Z AUTO 32004KT 10SM CLR 07/M01 A3005 RMK AO2 SLP178 T00721006
 
KRME - Rome, New York, USA
Distance from station: WNW 43mi, 69km
Updated: Tue, 16-Apr-2024 2:53am EDT
Clear
Clear
 Wind from calm
Wind: Calm
Temperature: 32°F, 0°C
Dew Point: 30°F, -1°C
Humidity: 93%
Barometer: 30.07 inHg, 1018.3 hPa
Clouds: Clear
Visibility: 10 miles, 16 km
2024/04/16 06:53 KRME 160653Z AUTO 00000KT 10SM CLR 00/M01 A3007 RMK AO2 SLP184 T00001011
KJFK - New York, New York, USA
Distance from station: SSE 159mi, 256km
Updated: Tue, 16-Apr-2024 2:51am EDT
Few Clouds
Few Clouds
 Wind from NNW
Wind: NNW 5 mph, 7 km/h
Temperature: 54°F, 12°C
Dew Point: 37°F, 3°C
Humidity: 54%
Barometer: 30.04 inHg, 1017.3 hPa
Clouds: Few Clouds
Visibility: 10 miles, 16 km
Cloud details: Few Clouds 7500 ft
2024/04/16 06:51 KJFK 160651Z 34004KT 10SM FEW075 12/03 A3004 RMK AO2 SLP172 T01220028 $
 
KROC - Rochester, New York, USA
Distance from station: W 150mi, 242km
Updated: Tue, 16-Apr-2024 2:54am EDT
Clear
Clear
 Wind from SW
Wind: SW 3 mph, 6 km/h
Temperature: 43°F, 6°C
Dew Point: 34°F, 1°C
Humidity: 71%
Barometer: 30.09 inHg, 1019 hPa
Clouds: Clear
Visibility: 10 miles, 16 km
2024/04/16 06:54 KROC 160654Z 23003KT 10SM CLR 06/01 A3009 RMK AO2 SLP193 T00610006
KART - Watertown, New York, USA
Distance from station: NNW 103mi, 166km
Updated: Tue, 16-Apr-2024 2:56am EDT
Clear
Clear
 Wind from S
Wind: S 5 mph, 7 km/h
Temperature: 39°F, 4°C
Wind Chill: 35°F, 2°C
Dew Point: 36°F, 2°C
Humidity: 87%
Barometer: 30.05 inHg, 1017.6 hPa
Clouds: Clear
Visibility: 10 miles, 16 km
2024/04/16 06:56 KART 160656Z AUTO 19004KT 10SM CLR 04/02 A3005 RMK AO2 SLP175 T00440022
 
KELM - Elmira-Corning, New York, USA
Distance from station: SSW 121mi, 195km
Updated: Tue, 16-Apr-2024 2:53am EDT
Clear
Clear
 Wind from calm
Wind: Calm
Temperature: 37°F, 3°C
Dew Point: 34°F, 1°C
Humidity: 87%
Barometer: 30.08 inHg, 1018.6 hPa
Clouds: Clear
Visibility: 10 miles, 16 km
2024/04/16 06:53 KELM 160653Z AUTO 00000KT 10SM CLR 03/01 A3008 RMK AO2 SLP189 T00280006
KJHW - Jamestown, New York, USA
Distance from station: SW 238mi, 383km
Updated: Tue, 16-Apr-2024 2:56am EDT
Partly cloudy
Partly cloudy
 Wind from calm
Wind: Calm
Temperature: 43°F, 6°C
Dew Point: 34°F, 1°C
Humidity: 71%
Barometer: 30.11 inHg, 1019.6 hPa
Clouds: Partly cloudy
Visibility: 10 miles, 16 km
Cloud details: Partly cloudy 6000 ft
2024/04/16 06:56 KJHW 160656Z AUTO 00000KT 10SM SCT060 06/01 A3011 RMK AO2 SLP205 T00610011
 
KMSS - Massena, New York, USA
Distance from station: N 141mi, 232km
Updated: Tue, 16-Apr-2024 2:53am EDT
Clear
Clear
 Wind from calm
Wind: Calm
Temperature: 37°F, 3°C
Dew Point: 36°F, 2°C
Humidity: 93%
Barometer: 30.03 inHg, 1016.9 hPa
Clouds: Clear
Visibility: 10 miles, 16 km
2024/04/16 06:53 KMSS 160653Z AUTO 00000KT 10SM CLR 03/02 A3003 RMK AO2 SLP171 T00330017
KBUF - Buffalo, New York, USA
Distance from station: W 204mi, 328km
Updated: Tue, 16-Apr-2024 2:54am EDT
Few Clouds
Few Clouds
 Wind from calm
Wind: Calm
Temperature: 45°F, 7°C
Dew Point: 37°F, 3°C
Humidity: 76%
Barometer: 30.10 inHg, 1019.3 hPa
Clouds: Few Clouds
Visibility: 10 miles, 16 km
Cloud details: Few Clouds 8000 ft
2024/04/16 06:54 KBUF 160654Z 00000KT 10SM FEW080 07/03 A3010 RMK AO2 SLP195 T00720033